Roberts, Wisconsin
Current Conditions -  °F | °C
As of 4:15 AM on Tuesday 27 Jan 2015 (Local Time) from KRNH Reporting Station
Overcast Overcast  
Wind Chill: 22°   Ceiling: 1900
Heat Index: 31°   Visibility: 10mi
Dew Point: 24°   Wind: 10mph
Humidity: 77%   Direction: 30°NNE
Pressure: 30.07"   Gusts: NA
Location:  44.98°N, 92.56°W
Report Text: KRNH 271015Z AUTO 03009KT 10SM OVC019 M01/M04 A3007 RMK AO2 T10071042
Loading
Personal Weather Stations






























Interactive Weather Map New forecast layout! Learn more

10-Day Weather Forecast

Advertisements
Track Severe Weather on mobile